Time;durP1;ratioP1;P1;durP2;ratioP2;P2;SDS_P1;SDS_P2;PMS_P1;PMS_P2;Temp;Humidity;BMP_temperature;BMP_pressure;BME280_temperature;BME280_humidity;BME280_pressure;Samples;Min_cycle;Max_cycle;Signal;HPM_P1;HPM_P2
2022/06/23 00:00:20;;;;;;;7.83;3.33;;;22.70;33.40;;;;;;5051988;28;20403;-45
2022/06/23 00:02:46;;;;;;;5.70;2.87;;;22.70;33.60;;;;;;5051847;28;20439;-45
2022/06/23 00:05:17;;;;;;;6.00;3.80;;;22.60;33.40;;;;;;5067377;28;20396;-45
2022/06/23 00:07:47;;;;;;;4.23;3.83;;;22.70;33.40;;;;;;5051703;28;20520;-45
2022/06/23 00:10:17;;;;;;;4.80;3.77;;;22.60;33.70;;;;;;5051941;28;20494;-45
2022/06/23 00:12:45;;;;;;;4.63;4.23;;;22.60;33.70;;;;;;5050538;28;20795;-45
2022/06/23 00:15:18;;;;;;;4.33;3.87;;;22.50;34.10;;;;;;5051790;28;20461;-45
2022/06/23 00:18:12;;;;;;;5.90;3.83;;;22.50;34.00;;;;;;5051703;28;20790;-45
2022/06/23 00:20:53;;;;;;;4.10;3.70;;;22.40;33.80;;;;;;5050600;28;20427;-45
2022/06/23 00:23:40;;;;;;;4.03;3.63;;;22.40;34.00;;;;;;5051894;28;20426;-45
2022/06/23 00:26:28;;;;;;;4.60;3.87;;;22.40;33.90;;;;;;5051487;28;20918;-45
2022/06/23 00:29:06;;;;;;;4.20;3.50;;;22.30;34.10;;;;;;5052013;28;20380;-46
2022/06/23 00:31:38;;;;;;;4.93;4.30;;;22.30;34.00;;;;;;5051979;28;20458;-44
2022/06/23 00:34:36;;;;;;;4.67;3.97;;;22.30;33.90;;;;;;5051472;28;20457;-45
2022/06/23 00:37:16;;;;;;;4.43;4.03;;;22.20;34.30;;;;;;5046864;28;20416;-45
2022/06/23 00:39:51;;;;;;;8.13;4.03;;;22.10;34.50;;;;;;5051536;28;20436;-45
2022/06/23 00:42:30;;;;;;;5.23;3.70;;;22.00;34.40;;;;;;5051760;28;20399;-46
2022/06/23 00:45:02;;;;;;;4.63;3.80;;;22.00;34.50;;;;;;5051815;28;20403;-45
2022/06/23 00:47:57;;;;;;;4.80;3.40;;;22.00;34.60;;;;;;5051275;28;20395;-45
2022/06/23 00:50:33;;;;;;;5.73;3.87;;;21.90;34.60;;;;;;5051502;28;20408;-45
2022/06/23 00:53:13;;;;;;;3.67;3.37;;;21.80;34.70;;;;;;5051279;28;20423;-45
2022/06/23 00:55:46;;;;;;;4.00;3.60;;;21.80;34.90;;;;;;5050026;28;20482;-45
2022/06/23 00:58:26;;;;;;;4.13;3.73;;;21.70;35.00;;;;;;5051373;28;20451;-45
2022/06/23 01:00:56;;;;;;;4.23;3.83;;;21.70;35.20;;;;;;5051709;28;20380;-45
2022/06/23 01:03:43;;;;;;;4.53;4.13;;;21.60;35.10;;;;;;5052062;28;20426;-45
2022/06/23 01:06:24;;;;;;;5.43;3.63;;;21.60;35.10;;;;;;5054715;28;20922;-45
2022/06/23 01:09:00;;;;;;;4.80;3.50;;;21.60;35.20;;;;;;5055183;28;20533;-45
2022/06/23 01:11:52;;;;;;;3.93;3.60;;;21.50;35.00;;;;;;5054944;28;20404;-46
2022/06/23 01:14:28;;;;;;;3.70;3.40;;;21.50;35.30;;;;;;5054912;28;20428;-45
2022/06/23 01:17:03;;;;;;;4.43;3.73;;;21.50;35.40;;;;;;5054603;28;20419;-45
2022/06/23 01:19:53;;;;;;;4.90;4.40;;;21.50;35.20;;;;;;5054776;28;20462;-45
2022/06/23 01:22:51;;;;;;;5.27;4.00;;;21.50;35.20;;;;;;5054785;28;20740;-45
2022/06/23 01:25:29;;;;;;;4.10;3.70;;;21.50;35.40;;;;;;5054697;28;20457;-45
2022/06/23 01:28:10;;;;;;;5.00;4.00;;;21.50;35.40;;;;;;5054385;28;20470;-45
2022/06/23 01:31:10;;;;;;;4.20;3.20;;;21.40;35.40;;;;;;5054499;28;20939;-45
2022/06/23 01:33:45;;;;;;;4.80;4.10;;;21.40;35.50;;;;;;5054236;28;20451;-45
2022/06/23 01:36:34;;;;;;;3.97;3.57;;;21.30;35.70;;;;;;5054224;28;20494;-45
2022/06/23 01:39:02;;;;;;;4.53;3.87;;;21.20;36.10;;;;;;5051275;28;20471;-45
2022/06/23 01:41:35;;;;;;;3.57;3.20;;;21.20;36.00;;;;;;5054256;28;21173;-45
2022/06/23 01:44:36;;;;;;;3.63;3.10;;;21.20;35.80;;;;;;5054297;28;20428;-45
2022/06/23 01:47:22;;;;;;;4.80;3.80;;;21.20;35.90;;;;;;5050955;28;20422;-45
2022/06/23 01:49:52;;;;;;;5.03;4.00;;;21.20;36.00;;;;;;5054307;28;20415;-46
2022/06/23 01:52:20;;;;;;;3.83;3.53;;;21.20;36.00;;;;;;5053999;28;20412;-45
2022/06/23 01:54:52;;;;;;;4.13;3.73;;;21.10;36.30;;;;;;5053991;28;20416;-46
2022/06/23 01:57:37;;;;;;;4.80;3.92;;;21.10;36.50;;;;;;5053729;28;20470;-45
2022/06/23 02:00:22;;;;;;;4.70;4.30;;;21.00;36.60;;;;;;5053861;28;20741;-46
2022/06/23 02:02:58;;;;;;;12.18;4.80;;;20.90;36.60;;;;;;5053835;28;20427;-45
2022/06/23 02:05:37;;;;;;;5.88;3.95;;;20.90;36.60;;;;;;5054064;28;20169;-45
2022/06/23 02:08:25;;;;;;;4.07;3.67;;;20.90;36.50;;;;;;5054067;28;20169;-46
2022/06/23 02:11:00;;;;;;;3.80;3.42;;;20.90;36.30;;;;;;5053962;28;20408;-45
2022/06/23 02:14:00;;;;;;;3.88;3.47;;;20.80;36.70;;;;;;5053625;28;20606;-44
2022/06/23 02:16:57;;;;;;;4.03;3.25;;;20.80;36.60;;;;;;5052670;28;20668;-45
2022/06/23 02:19:34;;;;;;;4.95;3.70;;;20.80;36.50;;;;;;5053572;28;20262;-46
2022/06/23 02:22:40;;;;;;;6.50;3.63;;;20.70;36.60;;;;;;5053514;28;20584;-45
2022/06/23 02:25:23;;;;;;;4.80;3.75;;;20.70;36.90;;;;;;5031153;28;20412;-45
2022/06/23 02:28:02;;;;;;;7.38;3.95;;;20.60;37.00;;;;;;5031035;28;20206;-45
2022/06/23 02:30:46;;;;;;;4.47;3.30;;;20.60;36.90;;;;;;5031129;28;20681;-45
2022/06/23 02:33:23;;;;;;;5.93;3.05;;;20.50;37.10;;;;;;5030901;28;20624;-45
2022/06/23 02:36:04;;;;;;;5.15;3.47;;;20.50;37.20;;;;;;5030806;28;20190;-45
2022/06/23 02:38:42;;;;;;;4.97;4.45;;;20.50;37.10;;;;;;5030973;28;20204;-45
2022/06/23 02:41:49;;;;;;;4.00;3.38;;;20.40;37.10;;;;;;5030875;28;20224;-45
2022/06/23 02:44:43;;;;;;;4.03;3.53;;;20.40;37.20;;;;;;4991234;28;20191;-45
2022/06/23 02:47:21;;;;;;;4.35;3.40;;;20.30;37.20;;;;;;5030597;28;20277;-45
2022/06/23 02:50:13;;;;;;;4.63;3.80;;;20.30;37.30;;;;;;5048661;22;20225;-44
2022/06/23 02:53:04;;;;;;;4.95;3.70;;;20.30;37.30;;;;;;5065630;28;20165;-47
2022/06/23 02:55:49;;;;;;;3.78;3.38;;;20.30;37.30;;;;;;5072837;28;20172;-46
2022/06/23 02:58:32;;;;;;;4.25;3.60;;;20.30;37.40;;;;;;5073089;28;20223;-47
2022/06/23 03:01:34;;;;;;;4.38;3.63;;;20.20;37.20;;;;;;5073009;28;20717;-47
2022/06/23 03:04:41;;;;;;;4.40;3.75;;;20.20;37.20;;;;;;5066944;28;20187;-46
2022/06/23 03:07:14;;;;;;;5.50;4.40;;;20.20;37.70;;;;;;5051982;28;20534;-47
2022/06/23 03:09:46;;;;;;;6.13;4.85;;;20.20;37.60;;;;;;5072610;28;20220;-47
2022/06/23 03:12:25;;;;;;;5.20;4.70;;;20.10;37.90;;;;;;5072586;28;20161;-46
2022/06/23 03:15:03;;;;;;;5.88;4.45;;;20.10;38.40;;;;;;5072619;28;20157;-45
2022/06/23 03:17:39;;;;;;;7.07;5.35;;;20.10;37.90;;;;;;5072230;28;20172;-45
2022/06/23 03:20:11;;;;;;;10.18;5.28;;;20.10;37.80;;;;;;5072263;28;20203;-45
2022/06/23 03:22:52;;;;;;;9.60;6.65;;;20.10;38.00;;;;;;5072360;28;20169;-45
2022/06/23 03:25:24;;;;;;;9.38;7.03;;;20.10;37.90;;;;;;5072408;28;20175;-45
2022/06/23 03:27:58;;;;;;;8.52;5.78;;;20.10;37.80;;;;;;5072440;28;20165;-45
2022/06/23 03:30:52;;;;;;;7.53;4.35;;;20.10;38.00;;;;;;5072344;28;20533;-45
2022/06/23 03:33:43;;;;;;;5.10;4.60;;;20.10;38.10;;;;;;5072297;28;20145;-44
2022/06/23 03:36:35;;;;;;;6.72;4.90;;;20.10;38.10;;;;;;5071970;28;20620;-45
2022/06/23 03:42:04;;;;;;;5.95;4.60;;;20.10;38.40;;;;;;5072454;28;20686;-44
2022/06/23 03:44:34;;;;;;;5.75;4.72;;;20.10;38.50;;;;;;5072195;28;20243;-45
2022/06/23 03:47:12;;;;;;;7.40;4.53;;;20.10;38.70;;;;;;5072219;28;20184;-44
2022/06/23 03:50:00;;;;;;;6.25;4.53;;;20.20;38.80;;;;;;5071897;28;20286;-44
2022/06/23 03:52:47;;;;;;;4.45;3.75;;;20.20;38.80;;;;;;5072321;28;20227;-44
2022/06/23 03:55:25;;;;;;;5.38;4.28;;;20.30;39.00;;;;;;5071957;28;20612;-44
2022/06/23 03:58:15;;;;;;;7.32;4.60;;;20.30;38.90;;;;;;5072035;28;20204;-47
2022/06/23 04:00:53;;;;;;;4.63;4.03;;;20.30;39.00;;;;;;5071998;28;20188;-44
2022/06/23 04:03:36;;;;;;;5.70;4.25;;;20.40;38.90;;;;;;5072004;28;20180;-43
2022/06/23 04:06:21;;;;;;;6.65;3.70;;;20.50;38.90;;;;;;5071735;28;20199;-44
2022/06/23 04:09:08;;;;;;;3.92;3.33;;;20.60;38.90;;;;;;5071931;28;20177;-43
2022/06/23 04:11:46;;;;;;;4.55;3.90;;;20.60;38.80;;;;;;5071838;28;20180;-44
2022/06/23 04:14:38;;;;;;;4.78;4.28;;;20.70;38.80;;;;;;5071838;28;20241;-45
2022/06/23 04:17:10;;;;;;;3.85;3.28;;;20.80;38.60;;;;;;5065966;28;20184;-44
2022/06/23 04:19:37;;;;;;;5.70;3.42;;;20.90;38.90;;;;;;5071585;28;20713;-44
2022/06/23 04:22:18;;;;;;;4.97;4.47;;;20.90;38.60;;;;;;5071801;28;20247;-44
2022/06/23 04:24:49;;;;;;;5.03;4.35;;;21.00;38.60;;;;;;5071713;28;20179;-46
2022/06/23 04:27:27;;;;;;;4.70;4.20;;;21.10;38.60;;;;;;5071551;28;20165;-44
2022/06/23 04:29:57;;;;;;;4.95;4.43;;;21.20;38.70;;;;;;5071658;28;20303;-44
2022/06/23 04:32:30;;;;;;;5.68;5.18;;;21.30;38.70;;;;;;5071701;28;20205;-44
2022/06/23 04:35:05;;;;;;;5.10;4.60;;;21.30;38.60;;;;;;5071627;28;20207;-46
2022/06/23 04:37:54;;;;;;;5.05;4.55;;;21.40;38.60;;;;;;5071355;28;20164;-45
2022/06/23 04:40:28;;;;;;;5.32;4.82;;;21.60;38.70;;;;;;5073526;28;20208;-46
2022/06/23 04:43:17;;;;;;;5.75;5.25;;;21.70;38.60;;;;;;5075452;28;20236;-46
2022/06/23 04:45:54;;;;;;;5.90;5.13;;;21.80;38.60;;;;;;5075058;28;20215;-47
2022/06/23 04:48:40;;;;;;;8.20;4.65;;;21.80;38.30;;;;;;5075302;28;20152;-46
2022/06/23 04:51:20;;;;;;;5.05;4.25;;;21.90;38.40;;;;;;5067786;28;20922;-46
2022/06/23 04:53:51;;;;;;;7.88;4.60;;;22.00;38.20;;;;;;5075267;28;20520;-46
2022/06/23 04:56:20;;;;;;;5.22;4.25;;;22.10;38.20;;;;;;5074946;28;20177;-47
2022/06/23 04:58:58;;;;;;;4.90;4.10;;;22.10;38.10;;;;;;5074922;28;20201;-47
2022/06/23 05:01:36;;;;;;;4.95;4.35;;;22.30;38.10;;;;;;5075096;28;20176;-46
2022/06/23 05:04:03;;;;;;;4.67;3.97;;;22.30;37.70;;;;;;5075020;28;20196;-46
2022/06/23 05:06:37;;;;;;;4.55;3.90;;;22.40;37.60;;;;;;5074650;28;20925;-45
2022/06/23 05:09:34;;;;;;;5.37;4.90;;;22.50;37.70;;;;;;5074900;28;20176;-47
2022/06/23 05:12:05;;;;;;;5.13;4.63;;;22.50;37.60;;;;;;5071486;28;20419;-46
2022/06/23 05:14:51;;;;;;;5.30;4.20;;;22.60;37.70;;;;;;5074812;28;20403;-46
2022/06/23 05:17:21;;;;;;;8.00;5.03;;;22.70;37.60;;;;;;5074437;28;20394;-46
2022/06/23 05:19:51;;;;;;;6.60;4.43;;;22.80;37.50;;;;;;5074604;28;20450;-45
2022/06/23 05:22:25;;;;;;;5.40;4.90;;;22.90;37.30;;;;;;5074932;28;20738;-45
2022/06/23 05:24:52;;;;;;;6.40;4.23;;;22.90;37.40;;;;;;5074916;28;20387;-45
2022/06/23 05:27:25;;;;;;;6.90;5.70;;;23.00;37.20;;;;;;5074209;28;20411;-45
2022/06/23 05:30:25;;;;;;;7.73;5.90;;;23.10;37.20;;;;;;5074334;28;20937;-45
2022/06/23 05:32:59;;;;;;;5.70;4.03;;;23.20;37.00;;;;;;5074419;28;20456;-47
2022/06/23 05:35:36;;;;;;;5.95;4.55;;;23.30;36.80;;;;;;5074495;28;20671;-45
2022/06/23 05:38:35;;;;;;;6.40;5.73;;;23.20;36.50;;;;;;5074406;28;20256;-46
2022/06/23 05:41:06;;;;;;;5.83;5.23;;;23.20;36.40;;;;;;5074222;28;20423;-45
2022/06/23 05:43:39;;;;;;;6.00;4.60;;;23.20;36.70;;;;;;5074401;28;20405;-45
2022/06/23 05:46:06;;;;;;;5.27;4.77;;;23.30;36.70;;;;;;5074065;28;20536;-44
2022/06/23 05:48:43;;;;;;;5.33;4.83;;;23.40;36.80;;;;;;5074155;28;20472;-45
2022/06/23 05:51:14;;;;;;;6.03;5.47;;;23.50;36.90;;;;;;5072767;28;20454;-44
2022/06/23 05:53:58;;;;;;;5.63;5.03;;;23.70;36.80;;;;;;5074007;28;20407;-46
2022/06/23 05:56:29;;;;;;;5.70;5.03;;;23.80;36.50;;;;;;5073796;28;20879;-45
2022/06/23 05:59:03;;;;;;;6.80;4.60;;;24.00;36.40;;;;;;5073835;28;20438;-46
2022/06/23 06:01:36;;;;;;;7.03;4.93;;;24.00;36.10;;;;;;5073965;28;20399;-46
2022/06/23 06:04:26;;;;;;;8.87;4.70;;;24.10;36.00;;;;;;5074198;28;20387;-45
2022/06/23 06:06:52;;;;;;;5.53;4.70;;;24.20;36.10;;;;;;5073612;28;20812;-46
2022/06/23 06:09:35;;;;;;;5.07;4.57;;;24.20;35.80;;;;;;5073590;28;20431;-45
2022/06/23 06:12:05;;;;;;;4.80;4.30;;;24.30;36.00;;;;;;5074055;28;20168;-46
2022/06/23 06:14:37;;;;;;;5.03;4.53;;;24.50;36.00;;;;;;5073702;28;20407;-45
2022/06/23 06:17:05;;;;;;;5.57;4.80;;;24.60;35.60;;;;;;5073422;28;20475;-45
2022/06/23 06:19:33;;;;;;;6.73;4.67;;;24.70;35.70;;;;;;5073376;28;20958;-45
2022/06/23 06:22:16;;;;;;;5.00;4.20;;;24.80;35.60;;;;;;5073401;28;20415;-45
2022/06/23 06:24:46;;;;;;;4.90;4.40;;;24.90;34.90;;;;;;5073480;28;20403;-45
2022/06/23 06:27:13;;;;;;;4.73;4.30;;;24.90;34.50;;;;;;5073486;28;20394;-45
2022/06/23 06:29:42;;;;;;;4.50;4.07;;;24.90;34.80;;;;;;5073204;28;20514;-45
2022/06/23 06:32:30;;;;;;;5.53;4.70;;;25.10;34.60;;;;;;5073296;28;20411;-45
2022/06/23 06:35:17;;;;;;;5.30;4.80;;;25.10;33.90;;;;;;5073295;28;20552;-46
2022/06/23 06:37:49;;;;;;;4.97;4.40;;;25.10;33.80;;;;;;5072965;28;20465;-45
2022/06/23 06:40:16;;;;;;;4.13;3.73;;;25.10;34.20;;;;;;5072979;28;20534;-44
2022/06/23 06:42:51;;;;;;;5.17;4.40;;;25.30;34.20;;;;;;5073018;28;20414;-45
2022/06/23 06:45:20;;;;;;;4.83;3.90;;;25.40;34.10;;;;;;5073030;28;20390;-46
2022/06/23 06:47:46;;;;;;;4.93;4.13;;;25.60;33.80;;;;;;5073086;28;20467;-44
2022/06/23 06:50:14;;;;;;;5.37;4.17;;;25.60;33.10;;;;;;5072705;28;20459;-45
2022/06/23 06:52:40;;;;;;;4.67;3.40;;;25.70;33.20;;;;;;5073175;28;20425;-46
2022/06/23 06:55:13;;;;;;;4.10;3.70;;;25.90;33.40;;;;;;5073076;28;20433;-45
2022/06/23 06:57:47;;;;;;;3.70;3.27;;;26.00;33.50;;;;;;5072669;28;20176;-45
2022/06/23 07:00:19;;;;;;;3.80;3.50;;;26.10;33.10;;;;;;5072710;28;20459;-46
2022/06/23 07:02:58;;;;;;;6.50;4.77;;;26.20;31.20;;;;;;5072413;28;20407;-45
2022/06/23 07:05:33;;;;;;;4.63;4.20;;;26.20;31.70;;;;;;5072616;28;20399;-45
2022/06/23 07:08:28;;;;;;;4.80;3.67;;;26.20;31.60;;;;;;5072834;28;20489;-46
2022/06/23 07:10:57;;;;;;;4.13;3.00;;;26.30;31.50;;;;;;5072493;28;20445;-45
2022/06/23 07:13:31;;;;;;;4.10;3.40;;;26.30;31.80;;;;;;5072520;28;20965;-46
2022/06/23 07:16:04;;;;;;;3.70;3.33;;;26.40;30.30;;;;;;5072505;28;20421;-46
2022/06/23 07:18:38;;;;;;;4.40;3.87;;;26.40;30.60;;;;;;5072377;28;20524;-45
2022/06/23 07:21:24;;;;;;;4.03;3.50;;;26.50;30.20;;;;;;5072487;28;20509;-45
2022/06/23 07:24:19;;;;;;;4.17;3.40;;;26.60;30.70;;;;;;5072425;28;20420;-45
2022/06/23 07:27:14;;;;;;;5.27;3.43;;;26.70;30.60;;;;;;5072468;28;20414;-46
2022/06/23 07:29:53;;;;;;;4.10;3.40;;;26.90;30.40;;;;;;5070071;28;20980;-45
2022/06/23 07:32:34;;;;;;;5.87;3.80;;;27.00;31.30;;;;;;5072563;28;20807;-46
2022/06/23 07:35:13;;;;;;;3.90;3.47;;;27.30;30.40;;;;;;5072551;28;20402;-45
2022/06/23 07:37:50;;;;;;;7.30;3.87;;;27.40;30.60;;;;;;5072074;28;20398;-45
2022/06/23 07:40:17;;;;;;;5.40;3.53;;;27.50;29.20;;;;;;5072019;28;20496;-45
2022/06/23 07:42:54;;;;;;;3.53;3.20;;;27.60;29.80;;;;;;5072101;28;21062;-46
2022/06/23 07:45:30;;;;;;;4.20;3.13;;;27.70;30.40;;;;;;5072127;28;20394;-46
2022/06/23 07:47:56;;;;;;;3.70;3.13;;;28.00;30.80;;;;;;5072044;28;20743;-46
2022/06/23 07:50:22;;;;;;;7.27;3.73;;;28.10;29.40;;;;;;5071938;28;20481;-46
2022/06/23 07:52:49;;;;;;;3.80;3.40;;;28.20;29.60;;;;;;5072115;28;20434;-46
2022/06/23 07:55:22;;;;;;;3.80;3.10;;;28.40;28.70;;;;;;5071932;28;20411;-47
2022/06/23 07:57:49;;;;;;;3.27;2.97;;;28.50;29.10;;;;;;5071812;28;20541;-47
2022/06/23 08:00:15;;;;;;;3.33;3.03;;;28.60;28.70;;;;;;5071977;28;20824;-47
2022/06/23 08:03:00;;;;;;;3.80;3.30;;;28.60;29.00;;;;;;5072245;28;20560;-47
2022/06/23 08:05:51;;;;;;;4.23;2.60;;;28.70;27.90;;;;;;5072122;28;20395;-47
2022/06/23 08:08:21;;;;;;;4.20;2.73;;;28.80;27.50;;;;;;5072118;28;20486;-47
2022/06/23 08:12:52;;;;;;;5.33;3.50;;;28.90;27.30;;;;;;5071809;28;20419;-46
2022/06/23 08:13:36;;;;;;;4.67;3.67;;;29.10;28.60;;;;;;5071798;28;20471;-47
2022/06/23 08:18:59;;;;;;;2.80;2.50;;;29.30;27.40;;;;;;5075840;28;21015;-48
2022/06/23 08:21:31;;;;;;;4.40;2.60;;;29.50;27.00;;;;;;5076005;28;20407;-47
2022/06/23 08:24:18;;;;;;;3.30;3.00;;;29.60;27.40;;;;;;5075876;28;20449;-47
2022/06/23 08:26:48;;;;;;;2.93;2.43;;;29.80;28.10;;;;;;5075484;28;20415;-47
2022/06/23 08:29:17;;;;;;;2.97;2.67;;;30.00;28.30;;;;;;5075642;28;20434;-46
2022/06/23 08:31:43;;;;;;;2.90;2.60;;;30.20;27.60;;;;;;5076052;28;20498;-48
2022/06/23 08:34:10;;;;;;;5.50;3.30;;;30.30;27.20;;;;;;5075601;28;20438;-47
2022/06/23 08:36:48;;;;;;;4.07;3.23;;;30.40;27.10;;;;;;5075612;28;20421;-48
2022/06/23 08:39:27;;;;;;;3.33;2.97;;;30.50;26.30;;;;;;5075441;28;20957;-48
2022/06/23 08:42:14;;;;;;;4.33;3.40;;;30.60;25.30;;;;;;5075548;28;20600;-48
2022/06/23 08:45:19;;;;;;;3.80;3.13;;;30.60;25.20;;;;;;5075417;28;20442;-47
2022/06/23 08:48:06;;;;;;;3.93;2.73;;;30.70;25.20;;;;;;5075122;28;20399;-48
2022/06/23 08:50:53;;;;;;;3.73;2.87;;;30.80;25.60;;;;;;5075093;28;20457;-45
2022/06/23 08:53:48;;;;;;;7.57;3.60;;;31.00;25.60;;;;;;5075232;28;20394;-45
2022/06/23 08:56:26;;;;;;;5.23;3.80;;;31.10;25.00;;;;;;5068224;28;20415;-46
2022/06/23 08:59:04;;;;;;;3.70;2.77;;;31.20;25.30;;;;;;5074989;28;20802;-46
2022/06/23 09:01:36;;;;;;;6.87;4.00;;;31.30;24.80;;;;;;5075354;28;20393;-46
2022/06/23 09:04:14;;;;;;;4.90;2.67;;;31.50;23.40;;;;;;5075324;28;20390;-46
2022/06/23 09:06:57;;;;;;;4.23;3.20;;;31.50;23.00;;;;;;5075162;28;20404;-46
2022/06/23 09:09:46;;;;;;;4.10;3.00;;;31.60;23.90;;;;;;5075004;28;20423;-46
2022/06/23 09:12:46;;;;;;;3.40;3.10;;;31.70;24.00;;;;;;5075156;28;20402;-46
2022/06/23 09:15:15;;;;;;;3.80;2.63;;;31.70;23.10;;;;;;5074856;28;20465;-45
2022/06/23 09:18:07;;;;;;;3.47;3.00;;;31.80;22.00;;;;;;5074919;28;20649;-45
2022/06/23 09:21:10;;;;;;;4.37;3.47;;;31.90;21.90;;;;;;5074965;28;20536;-45
2022/06/23 09:24:01;;;;;;;6.93;2.80;;;32.00;23.30;;;;;;5074885;28;20434;-46
2022/06/23 09:26:36;;;;;;;4.83;3.40;;;32.10;22.20;;;;;;5072091;28;20422;-46
2022/06/23 09:29:17;;;;;;;3.77;3.37;;;32.10;22.80;;;;;;5074497;28;20401;-46
2022/06/23 09:32:01;;;;;;;4.50;3.63;;;32.30;23.50;;;;;;5074609;28;20387;-44
2022/06/23 09:34:35;;;;;;;3.30;2.93;;;32.40;23.30;;;;;;5074515;28;20415;-46
2022/06/23 09:37:38;;;;;;;4.37;3.20;;;32.50;22.40;;;;;;5074230;28;20852;-46
2022/06/23 09:40:22;;;;;;;2.80;2.47;;;32.60;23.50;;;;;;5074436;28;20461;-46
2022/06/23 09:43:26;;;;;;;3.03;2.63;;;32.70;23.50;;;;;;5074582;28;20403;-46
2022/06/23 09:46:04;;;;;;;3.00;2.27;;;32.90;22.00;;;;;;5058033;28;20414;-44
2022/06/23 09:49:02;;;;;;;4.37;2.87;;;33.00;22.40;;;;;;5074271;28;20403;-47
2022/06/23 09:51:27;;;;;;;3.97;2.60;;;33.00;20.80;;;;;;5074455;28;20472;-46
2022/06/23 09:54:05;;;;;;;3.07;2.40;;;32.90;20.20;;;;;;5074058;28;20919;-46
2022/06/23 09:56:50;;;;;;;4.73;2.47;;;33.00;21.00;;;;;;5073848;28;20161;-46
2022/06/23 09:59:16;;;;;;;3.00;2.30;;;33.10;20.50;;;;;;5073893;28;20458;-46
2022/06/23 10:02:03;;;;;;;2.77;2.50;;;33.10;19.80;;;;;;5074174;28;20410;-45
2022/06/23 10:04:41;;;;;;;3.43;2.33;;;33.10;20.00;;;;;;5073905;28;20157;-45
2022/06/23 10:07:27;;;;;;;3.60;2.60;;;33.20;21.40;;;;;;5073598;28;20403;-46
2022/06/23 10:10:20;;;;;;;7.90;3.90;;;33.30;21.70;;;;;;5073711;28;20438;-45
2022/06/23 10:13:04;;;;;;;2.47;2.03;;;33.60;21.30;;;;;;5073723;28;20411;-47
2022/06/23 10:16:04;;;;;;;4.90;2.47;;;33.70;21.30;;;;;;5073538;28;20442;-47
2022/06/23 10:18:59;;;;;;;3.10;2.53;;;33.80;20.60;;;;;;5073842;28;20392;-45
2022/06/23 10:21:36;;;;;;;5.50;2.50;;;33.90;20.60;;;;;;5073508;28;20899;-46
2022/06/23 10:24:39;;;;;;;3.10;2.13;;;33.90;19.50;;;;;;5073520;28;20747;-48
2022/06/23 10:27:24;;;;;;;2.50;1.90;;;34.00;19.70;;;;;;5073233;28;20405;-49
2022/06/23 10:30:23;;;;;;;2.50;1.97;;;34.10;17.60;;;;;;5073412;28;20431;-48
2022/06/23 10:33:04;;;;;;;3.17;1.50;;;34.10;17.20;;;;;;5073452;28;20402;-46
2022/06/23 10:35:37;;;;;;;3.10;1.97;;;34.00;18.50;;;;;;5073525;28;20404;-47
2022/06/23 10:38:08;;;;;;;2.80;2.10;;;34.10;17.40;;;;;;5072608;28;20391;-46
2022/06/23 10:41:03;;;;;;;2.20;1.97;;;34.10;16.50;;;;;;5073093;28;20454;-47
2022/06/23 10:43:53;;;;;;;3.87;2.57;;;34.20;17.30;;;;;;5073440;28;20391;-48
2022/06/23 10:46:31;;;;;;;2.43;1.90;;;34.10;15.10;;;;;;5073137;28;20724;-48
2022/06/23 10:49:21;;;;;;;2.17;1.70;;;34.10;16.40;;;;;;5073084;28;20467;-46
2022/06/23 10:52:24;;;;;;;2.63;2.10;;;34.20;16.80;;;;;;5073052;28;20418;-47
2022/06/23 10:55:16;;;;;;;2.70;2.17;;;34.30;16.80;;;;;;5072857;28;20413;-46
2022/06/23 10:58:29;;;;;;;3.37;2.10;;;34.40;16.60;;;;;;5056635;28;20415;-46
2022/06/23 11:01:14;;;;;;;2.30;1.90;;;34.50;14.70;;;;;;5072935;28;20425;-46
2022/06/23 11:03:59;;;;;;;2.40;1.93;;;34.40;14.80;;;;;;5073097;28;20396;-47
2022/06/23 11:06:40;;;;;;;2.50;1.60;;;34.40;16.70;;;;;;5072557;28;20442;-46
2022/06/23 11:09:28;;;;;;;3.00;1.93;;;34.50;15.80;;;;;;5072523;28;20371;-46
2022/06/23 11:12:28;;;;;;;2.93;2.23;;;34.60;15.20;;;;;;5072691;28;20391;-46
2022/06/23 11:15:22;;;;;;;2.33;1.37;;;34.60;16.20;;;;;;5072898;28;20385;-47
2022/06/23 11:18:21;;;;;;;3.37;1.90;;;34.70;16.90;;;;;;5072305;28;20478;-45
2022/06/23 11:21:38;;;;;;;3.13;1.77;;;34.90;16.70;;;;;;5072469;28;20434;-47
2022/06/23 11:24:07;;;;;;;2.20;1.83;;;35.00;16.40;;;;;;5054815;28;20434;-45
2022/06/23 11:27:03;;;;;;;2.07;1.67;;;35.20;15.20;;;;;;5072377;28;20438;-47
2022/06/23 11:29:40;;;;;;;2.70;2.10;;;35.30;14.40;;;;;;5072198;28;20915;-45
2022/06/23 11:32:25;;;;;;;2.30;1.90;;;35.20;13.90;;;;;;5072606;28;20391;-46
2022/06/23 11:35:01;;;;;;;3.73;1.93;;;35.00;14.90;;;;;;5072334;28;20396;-46
2022/06/23 11:37:44;;;;;;;3.83;2.17;;;34.90;14.30;;;;;;5071985;28;20390;-46
2022/06/23 11:40:28;;;;;;;3.03;2.37;;;35.00;15.50;;;;;;5071985;28;21079;-47
2022/06/23 11:43:05;;;;;;;2.67;2.00;;;35.10;15.90;;;;;;5072413;28;20398;-46
2022/06/23 11:45:43;;;;;;;2.80;2.03;;;35.20;15.50;;;;;;5072328;28;20744;-46
2022/06/23 11:48:34;;;;;;;5.13;2.07;;;35.40;14.50;;;;;;5071964;28;20411;-46
2022/06/23 11:51:18;;;;;;;3.20;1.90;;;35.40;15.00;;;;;;5071463;28;20447;-46
2022/06/23 11:53:50;;;;;;;6.40;5.10;;;35.70;15.40;;;;;;5072078;28;20407;-46
2022/06/23 11:56:21;;;;;;;2.67;2.00;;;35.80;15.50;;;;;;5071836;28;20983;-46
2022/06/23 11:59:29;;;;;;;2.97;2.27;;;35.90;14.20;;;;;;5071937;28;20458;-46
2022/06/23 12:01:55;;;;;;;2.37;1.83;;;36.00;15.40;;;;;;5057510;28;20448;-48
2022/06/23 12:04:54;;;;;;;1.90;1.40;;;35.90;14.80;;;;;;5071936;28;20435;-47
2022/06/23 12:07:35;;;;;;;2.20;1.53;;;35.90;13.90;;;;;;5071113;28;20778;-46
2022/06/23 12:10:17;;;;;;;2.57;2.00;;;35.90;14.60;;;;;;5072110;28;20433;-47
2022/06/23 12:12:45;;;;;;;3.43;2.13;;;36.00;15.50;;;;;;5071895;28;20793;-46
2022/06/23 12:15:16;;;;;;;2.63;2.07;;;36.20;15.00;;;;;;5072161;28;20413;-45
2022/06/23 12:17:53;;;;;;;3.20;2.00;;;36.20;14.60;;;;;;5071670;28;20452;-45
2022/06/23 12:20:39;;;;;;;3.13;1.97;;;36.20;14.80;;;;;;5071867;28;20461;-47
2022/06/23 12:23:42;;;;;;;6.03;1.80;;;36.30;15.10;;;;;;5072061;28;20395;-45
2022/06/23 12:26:19;;;;;;;2.20;1.60;;;36.50;13.70;;;;;;5029118;28;20412;-45
2022/06/23 12:29:03;;;;;;;2.17;1.53;;;36.60;14.80;;;;;;5029476;28;20439;-48
2022/06/23 12:31:54;;;;;;;3.50;1.67;;;36.80;13.60;;;;;;5029469;28;20527;-49
2022/06/23 12:34:45;;;;;;;2.07;1.60;;;36.70;12.70;;;;;;5029328;28;20916;-49
2022/06/23 12:37:42;;;;;;;2.50;1.37;;;36.70;13.70;;;;;;5028756;28;20881;-47
2022/06/23 12:40:20;;;;;;;3.00;1.80;;;36.70;14.20;;;;;;5029159;28;20472;-45
2022/06/23 12:43:11;;;;;;;2.90;1.77;;;36.80;14.50;;;;;;5029239;28;20455;-48
2022/06/23 12:45:51;;;;;;;2.40;1.67;;;36.80;14.80;;;;;;5015379;28;20943;-46
2022/06/23 12:48:17;;;;;;;2.90;1.70;;;37.00;14.10;;;;;;5029174;28;20408;-48
2022/06/23 12:51:03;;;;;;;2.70;1.50;;;37.00;13.30;;;;;;5028995;28;20526;-47
2022/06/23 12:53:41;;;;;;;2.60;1.53;;;36.90;12.60;;;;;;5029252;28;20417;-45
2022/06/23 12:56:16;;;;;;;2.57;1.40;;;36.90;13.50;;;;;;5028944;28;20602;-48
2022/06/23 12:58:50;;;;;;;1.80;1.00;;;36.90;13.30;;;;;;5029219;28;20578;-46
2022/06/23 13:01:29;;;;;;;2.00;1.33;;;36.90;11.20;;;;;;5073036;28;20414;-46
2022/06/23 13:04:00;;;;;;;2.20;1.27;;;36.90;12.10;;;;;;5075421;28;20398;-47
2022/06/23 13:06:43;;;;;;;2.00;1.20;;;36.90;11.50;;;;;;5074849;28;20383;-46
2022/06/23 13:09:09;;;;;;;2.07;1.40;;;36.90;11.40;;;;;;5074887;28;20564;-47
2022/06/23 13:11:40;;;;;;;2.23;1.37;;;36.80;11.20;;;;;;5074942;28;20414;-46
2022/06/23 13:14:30;;;;;;;3.20;1.23;;;36.90;11.80;;;;;;5074864;28;20421;-47
2022/06/23 13:17:21;;;;;;;2.47;1.73;;;36.90;11.70;;;;;;5074485;28;20414;-46
2022/06/23 13:20:13;;;;;;;1.90;1.07;;;37.00;12.50;;;;;;5074624;28;20467;-46
2022/06/23 13:23:02;;;;;;;2.33;1.30;;;37.10;11.20;;;;;;5074965;28;20407;-47
2022/06/23 13:25:34;;;;;;;3.73;2.07;;;37.10;10.70;;;;;;5074746;28;20452;-47
2022/06/23 13:28:04;;;;;;;1.73;1.20;;;37.00;11.20;;;;;;5074610;28;20883;-47
2022/06/23 13:30:39;;;;;;;1.90;1.07;;;37.00;10.80;;;;;;5074469;28;20423;-46
2022/06/23 13:33:36;;;;;;;2.00;1.23;;;36.80;10.00;;;;;;5074853;28;20539;-46
2022/06/23 13:36:39;;;;;;;4.07;1.00;;;36.80;9.80;;;;;;5074269;28;20395;-47
2022/06/23 13:39:11;;;;;;;2.13;1.53;;;36.80;11.00;;;;;;5069540;28;20457;-46
2022/06/23 13:41:53;;;;;;;1.90;1.20;;;37.00;12.10;;;;;;5074510;28;20407;-46
2022/06/23 13:44:18;;;;;;;2.77;1.23;;;37.00;11.40;;;;;;5074401;28;20395;-46
2022/06/23 13:46:59;;;;;;;1.80;1.00;;;37.20;12.10;;;;;;5074180;28;20930;-46
2022/06/23 13:49:33;;;;;;;2.90;2.20;;;37.30;11.10;;;;;;5074101;28;20246;-48
2022/06/23 13:52:24;;;;;;;2.63;1.70;;;37.40;11.20;;;;;;5074410;28;20766;-48
2022/06/23 13:55:07;;;;;;;2.07;1.47;;;37.40;11.40;;;;;;5074097;28;20468;-48
2022/06/23 13:57:54;;;;;;;2.63;1.30;;;37.20;11.40;;;;;;5073852;28;20891;-48
2022/06/23 14:00:49;;;;;;;2.53;1.80;;;37.20;12.70;;;;;;5073874;28;20462;-48
2022/06/23 14:03:48;;;;;;;4.10;2.10;;;37.20;11.90;;;;;;5064853;28;20760;-46